createdAt,value
2023-04-18T00:02:07.216Z,78.78
2023-04-18T00:04:35.676Z,75.57
2023-04-18T00:07:04.132Z,72.21
2023-04-18T00:09:32.435Z,72.84
2023-04-18T00:12:01.630Z,71.26
2023-04-18T00:14:30.169Z,72.23
2023-04-18T00:16:58.522Z,72.36
2023-04-18T00:19:28.281Z,69.48
2023-04-18T00:21:58.080Z,69.53
2023-04-18T00:24:27.025Z,70.34
2023-04-18T00:26:55.513Z,69.74
2023-04-18T00:29:23.789Z,68.96
2023-04-18T00:31:52.073Z,75.30
2023-04-18T00:34:20.437Z,75.53
2023-04-18T00:36:50.062Z,73.39
2023-04-18T00:39:18.295Z,72.61
2023-04-18T00:41:46.650Z,71.79
2023-04-18T00:44:15.067Z,70.74
2023-04-18T00:46:43.382Z,71.69
2023-04-18T00:49:12.971Z,72.68
2023-04-18T00:51:41.374Z,70.10
2023-04-18T00:54:13.454Z,69.18
2023-04-18T00:56:42.145Z,71.39
2023-04-18T00:59:10.785Z,71.13
2023-04-18T01:01:40.313Z,76.29
2023-04-18T01:04:09.429Z,76.06
2023-04-18T01:06:38.000Z,72.97
2023-04-18T01:09:06.663Z,77.70
2023-04-18T01:11:36.380Z,80.78
2023-04-18T01:14:05.929Z,76.95
2023-04-18T01:16:34.827Z,78.98
2023-04-18T01:19:03.729Z,83.48
2023-04-18T01:21:33.930Z,78.84
2023-04-18T01:24:09.293Z,81.39
2023-04-18T01:26:37.590Z,78.54
2023-04-18T01:29:06.313Z,79.98
2023-04-18T01:31:36.079Z,79.38
2023-04-18T01:34:04.431Z,79.06
2023-04-18T01:36:33.158Z,79.67
2023-04-18T01:39:01.833Z,75.75
2023-04-18T01:41:32.880Z,83.28
2023-04-18T01:44:01.817Z,80.22
2023-04-18T01:46:30.168Z,82.13
2023-04-18T01:49:00.768Z,81.13
2023-04-18T01:51:28.930Z,79.61
2023-04-18T01:53:57.141Z,82.35
2023-04-18T01:56:25.370Z,80.09
2023-04-18T01:58:54.957Z,87.56
2023-04-18T02:01:23.307Z,82.64
2023-04-18T02:03:51.783Z,77.23
2023-04-18T02:06:20.248Z,76.27
2023-04-18T02:08:48.539Z,71.89
2023-04-18T02:11:16.822Z,78.75
2023-04-18T02:13:45.054Z,71.30
2023-04-18T02:16:14.866Z,73.45
2023-04-18T02:18:44.778Z,76.44
2023-04-18T02:21:13.230Z,72.05
2023-04-18T02:23:41.608Z,73.58
2023-04-18T02:26:09.889Z,69.98
2023-04-18T02:28:39.193Z,72.42
2023-04-18T02:31:14.481Z,71.94
2023-04-18T02:33:45.395Z,73.62
2023-04-18T02:36:13.804Z,72.27
2023-04-18T02:38:42.173Z,69.10
2023-04-18T02:41:14.998Z,67.42
2023-04-18T02:43:43.744Z,73.48
2023-04-18T02:46:12.030Z,74.05
2023-04-18T02:48:40.342Z,70.84
2023-04-18T02:51:10.840Z,80.31
2023-04-18T02:53:39.120Z,81.68
2023-04-18T02:56:08.485Z,82.38
2023-04-18T02:58:37.000Z,85.70
2023-04-18T03:01:05.321Z,88.30
2023-04-18T03:03:33.634Z,77.88
2023-04-18T03:06:01.940Z,82.38
2023-04-18T03:08:31.579Z,77.97
2023-04-18T03:11:00.035Z,78.02
2023-04-18T03:13:28.277Z,75.52
2023-04-18T03:15:56.503Z,79.36
2023-04-18T03:18:24.814Z,74.14
2023-04-18T03:20:53.220Z,71.63
2023-04-18T03:23:21.943Z,71.79
2023-04-18T03:25:51.564Z,72.65
2023-04-18T03:28:19.890Z,72.71
2023-04-18T03:30:48.215Z,76.99
2023-04-18T03:33:17.134Z,83.02
2023-04-18T03:35:45.465Z,76.11
2023-04-18T03:38:13.669Z,73.25
2023-04-18T03:40:44.541Z,76.70
2023-04-18T03:43:14.673Z,78.78
2023-04-18T03:45:44.104Z,79.98
2023-04-18T03:48:12.426Z,79.64
2023-04-18T03:50:40.910Z,82.82
2023-04-18T03:53:09.134Z,83.60
2023-04-18T03:55:37.503Z,89.67
2023-04-18T03:58:05.769Z,92.37
2023-04-18T04:00:35.488Z,83.87
2023-04-18T04:03:04.001Z,84.75
2023-04-18T04:05:32.403Z,86.52
2023-04-18T04:08:00.647Z,87.25
2023-04-18T04:10:29.054Z,85.03
2023-04-18T04:12:57.338Z,89.77
2023-04-18T04:15:25.562Z,85.08
2023-04-18T04:17:55.232Z,99.52
2023-04-18T04:20:24.837Z,93.65
2023-04-18T04:22:53.993Z,83.98
2023-04-18T04:25:23.930Z,82.67
2023-04-18T04:27:53.700Z,97.41
2023-04-18T04:30:22.737Z,93.43
2023-04-18T04:32:51.121Z,100.00
2023-04-18T04:35:22.402Z,100.00
2023-04-18T04:37:51.728Z,99.64
2023-04-18T04:40:20.106Z,100.00
2023-04-18T04:42:49.206Z,91.02
2023-04-18T04:45:17.668Z,89.42
2023-04-18T04:47:46.000Z,85.29
2023-04-18T04:50:15.827Z,87.81
2023-04-18T04:52:45.573Z,88.52
2023-04-18T04:55:13.978Z,85.40
2023-04-18T04:57:42.248Z,93.73
2023-04-18T05:00:13.715Z,83.97
2023-04-18T05:02:41.998Z,90.97
2023-04-18T05:05:10.680Z,90.07
2023-04-18T05:07:38.939Z,78.51
2023-04-18T05:10:14.379Z,80.46
2023-04-18T05:12:42.790Z,80.67
2023-04-18T05:15:12.375Z,84.81
2023-04-18T05:17:40.722Z,87.40
2023-04-18T05:20:10.416Z,77.14
2023-04-18T05:22:38.730Z,82.00
2023-04-18T05:25:09.442Z,85.52
2023-04-18T05:27:37.678Z,88.36
2023-04-18T05:30:07.024Z,92.77
2023-04-18T05:32:35.327Z,94.54
2023-04-18T05:35:03.770Z,91.68
2023-04-18T05:37:32.077Z,92.82
2023-04-18T05:40:01.071Z,100.00
2023-04-18T05:42:30.886Z,87.67
2023-04-18T05:44:59.317Z,92.68
2023-04-18T05:47:28.632Z,87.40
2023-04-18T05:49:57.000Z,78.44
2023-04-18T05:52:26.133Z,96.55
2023-04-18T05:54:54.431Z,98.75
2023-04-18T05:57:22.697Z,97.01
2023-04-18T05:59:52.384Z,91.68
2023-04-18T06:02:21.160Z,87.73
2023-04-18T06:04:50.051Z,83.70
2023-04-18T06:07:18.421Z,83.14
2023-04-18T06:09:46.758Z,93.32
2023-04-18T06:12:15.034Z,95.54
2023-04-18T06:14:43.332Z,83.55
2023-04-18T06:17:13.991Z,91.94
2023-04-18T06:19:42.113Z,93.11
2023-04-18T06:22:10.277Z,88.99
2023-04-18T06:24:38.556Z,90.15
2023-04-18T06:27:09.376Z,87.87
2023-04-18T06:29:43.867Z,89.33
2023-04-18T06:32:13.462Z,82.74
2023-04-18T06:34:41.726Z,82.40
2023-04-18T06:37:09.977Z,85.56
2023-04-18T06:39:38.263Z,78.44
2023-04-18T06:42:06.620Z,79.90
2023-04-18T06:44:36.004Z,71.77
2023-04-18T06:47:04.362Z,79.79
2023-04-18T06:49:33.962Z,74.18
2023-04-18T06:52:02.277Z,71.25
2023-04-18T06:54:30.592Z,71.02
2023-04-18T06:56:58.812Z,69.46
2023-04-18T06:59:27.101Z,74.42
2023-04-18T07:01:55.390Z,69.43
2023-04-18T07:04:23.826Z,66.85
2023-04-18T07:06:54.065Z,70.67
2023-04-18T07:09:22.766Z,79.07
2023-04-18T07:11:52.684Z,70.28
2023-04-18T07:14:23.692Z,70.50
2023-04-18T07:16:52.002Z,66.96
2023-04-18T07:19:20.298Z,65.38
2023-04-18T07:21:48.705Z,73.95
2023-04-18T07:24:18.331Z,76.54
2023-04-18T07:26:46.570Z,74.79
2023-04-18T07:29:14.835Z,72.33
2023-04-18T07:31:43.065Z,73.28
2023-04-18T07:34:11.751Z,77.02
2023-04-18T07:36:40.314Z,69.10
2023-04-18T07:39:08.592Z,66.12
2023-04-18T07:41:38.234Z,65.10
2023-04-18T07:44:06.698Z,65.43
2023-04-18T07:46:35.091Z,65.51
2023-04-18T07:49:03.620Z,59.13
2023-04-18T07:51:32.339Z,63.16
2023-04-18T07:54:00.705Z,60.19
2023-04-18T07:56:43.807Z,61.10
2023-04-18T07:59:13.837Z,60.21
2023-04-18T08:01:42.269Z,62.04
2023-04-18T08:04:11.019Z,55.42
2023-04-18T08:06:39.558Z,59.16
2023-04-18T08:09:08.217Z,54.57
2023-04-18T08:11:36.545Z,57.51
2023-04-18T08:14:04.780Z,56.66
2023-04-18T08:16:34.442Z,55.61
2023-04-18T08:19:02.718Z,57.08
2023-04-18T08:21:31.129Z,59.77
2023-04-18T08:23:59.715Z,54.94
2023-04-18T08:26:28.205Z,53.25
2023-04-18T08:28:56.564Z,56.44
2023-04-18T08:31:25.020Z,55.36
2023-04-18T08:33:54.811Z,49.92
2023-04-18T08:36:24.876Z,54.06
2023-04-18T08:38:53.306Z,54.38
2023-04-18T08:41:23.170Z,56.67
2023-04-18T08:43:51.854Z,58.49
2023-04-18T08:46:20.230Z,60.11
2023-04-18T08:48:51.315Z,58.76
2023-04-18T08:51:21.609Z,56.42
2023-04-18T08:53:50.616Z,55.01
2023-04-18T08:56:22.386Z,52.59
2023-04-18T08:58:50.870Z,53.70
2023-04-18T09:01:19.159Z,54.19
2023-04-18T09:03:47.670Z,51.65
2023-04-18T09:06:19.362Z,51.78
2023-04-18T09:08:59.134Z,51.97
2023-04-18T09:11:29.007Z,53.22
2023-04-18T09:14:10.905Z,50.26
2023-04-18T09:16:47.215Z,52.05
2023-04-18T09:19:18.895Z,50.35
2023-04-18T09:21:48.706Z,49.28
2023-04-18T09:24:24.115Z,49.32
2023-04-18T09:26:53.679Z,48.35
2023-04-18T09:29:23.433Z,51.15
2023-04-18T09:31:57.329Z,51.33
2023-04-18T09:34:26.466Z,51.45
2023-04-18T09:37:08.427Z,50.67
2023-04-18T09:39:38.836Z,50.45
2023-04-18T09:42:08.014Z,49.14
2023-04-18T09:44:36.346Z,47.08
2023-04-18T09:47:04.636Z,47.53
2023-04-18T09:49:33.751Z,49.14
2023-04-18T09:52:04.685Z,47.53
2023-04-18T09:54:34.383Z,49.88
2023-04-18T09:57:05.062Z,48.69
2023-04-18T09:59:43.066Z,50.29
2023-04-18T10:02:16.448Z,47.83
2023-04-18T10:04:45.726Z,48.29
2023-04-18T10:07:14.373Z,50.44
2023-04-18T10:09:51.847Z,51.27
2023-04-18T10:12:21.941Z,49.63
2023-04-18T10:14:54.812Z,47.79
2023-04-18T10:17:23.180Z,46.22
2023-04-18T10:20:08.021Z,45.01
2023-04-18T10:22:36.626Z,44.75
2023-04-18T10:25:06.222Z,45.03
2023-04-18T10:28:01.259Z,46.13
2023-04-18T10:30:55.050Z,46.24
2023-04-18T10:33:30.822Z,47.21
2023-04-18T10:36:06.153Z,47.80
2023-04-18T10:38:35.346Z,48.86
2023-04-18T10:41:17.258Z,47.58
2023-04-18T10:44:22.719Z,45.80
2023-04-18T10:47:22.212Z,47.96
2023-04-18T10:49:58.313Z,51.02
2023-04-18T10:52:26.918Z,50.00
2023-04-18T10:55:02.635Z,51.67
2023-04-18T10:57:39.167Z,50.68
2023-04-18T11:00:13.196Z,49.34
2023-04-18T11:02:49.294Z,49.17
2023-04-18T11:05:22.692Z,49.19
2023-04-18T11:07:51.186Z,48.40
2023-04-18T11:10:20.979Z,48.72
2023-04-18T11:12:49.573Z,47.62
2023-04-18T11:15:22.112Z,45.65
2023-04-18T11:17:58.527Z,46.03
2023-04-18T11:20:26.933Z,46.95
2023-04-18T11:22:56.654Z,46.45
2023-04-18T11:25:27.526Z,47.35
2023-04-18T11:27:56.196Z,45.43
2023-04-18T11:30:26.102Z,44.31
2023-04-18T11:32:55.072Z,45.03
2023-04-18T11:35:23.497Z,43.57
2023-04-18T11:37:52.057Z,43.69
2023-04-18T11:40:20.424Z,44.94
2023-04-18T11:42:48.680Z,44.52
2023-04-18T11:45:17.165Z,44.15
2023-04-18T11:47:47.407Z,46.05
2023-04-18T11:50:15.749Z,46.05
2023-04-18T11:52:44.058Z,47.20
2023-04-18T11:55:17.881Z,47.46
2023-04-18T11:57:53.935Z,48.92
2023-04-18T12:00:33.629Z,52.22
2023-04-18T12:03:13.346Z,52.15
2023-04-18T12:05:43.279Z,53.02
2023-04-18T12:08:13.228Z,51.57
2023-04-18T12:10:47.723Z,54.19
2023-04-18T12:13:16.266Z,52.06
2023-04-18T12:15:45.705Z,54.28
2023-04-18T12:18:16.806Z,53.98
2023-04-18T12:20:50.383Z,54.35
2023-04-18T12:23:35.550Z,53.33
2023-04-18T12:26:04.927Z,53.91
2023-04-18T12:28:34.301Z,52.94
2023-04-18T12:31:02.738Z,51.03
2023-04-18T12:33:32.779Z,53.77
2023-04-18T12:36:01.065Z,51.74
2023-04-18T12:38:29.439Z,49.98
2023-04-18T12:40:57.786Z,50.50
2023-04-18T12:43:26.615Z,50.45
2023-04-18T12:45:55.234Z,50.65
2023-04-18T12:48:23.491Z,49.16
2023-04-18T12:50:53.228Z,48.47
2023-04-18T12:53:21.633Z,49.82
2023-04-18T12:55:50.029Z,48.18
2023-04-18T12:58:20.597Z,50.56
2023-04-18T13:00:48.810Z,50.19
2023-04-18T13:03:17.375Z,47.44
2023-04-18T13:05:46.097Z,48.68
2023-04-18T13:08:17.952Z,46.73
2023-04-18T13:10:47.689Z,49.88
2023-04-18T13:13:16.260Z,49.71
2023-04-18T13:15:44.594Z,48.49
2023-04-18T13:18:12.784Z,48.39
2023-04-18T13:20:41.108Z,49.52
2023-04-18T13:23:09.373Z,49.69
2023-04-18T13:25:39.404Z,49.66
2023-04-18T13:28:07.722Z,49.15
2023-04-18T13:30:36.632Z,48.25
2023-04-18T13:33:05.036Z,52.39
2023-04-18T13:35:33.359Z,51.95
2023-04-18T13:38:01.567Z,52.46
2023-04-18T13:40:29.883Z,51.81
2023-04-18T13:42:59.491Z,50.76
2023-04-18T13:45:27.783Z,50.96
2023-04-18T13:47:56.087Z,52.02
2023-04-18T13:50:24.507Z,51.18
2023-04-18T13:52:54.500Z,49.94
2023-04-18T13:55:22.935Z,50.98
2023-04-18T13:57:51.318Z,48.39
2023-04-18T14:00:21.624Z,51.35
2023-04-18T14:02:50.401Z,54.06
2023-04-18T14:05:18.877Z,53.03
2023-04-18T14:07:48.540Z,52.60
2023-04-18T14:10:16.906Z,51.65
2023-04-18T14:12:45.270Z,52.99
2023-04-18T14:15:13.550Z,55.27
2023-04-18T14:17:45.458Z,55.49
2023-04-18T14:20:15.692Z,52.81
2023-04-18T14:22:43.974Z,53.36
2023-04-18T14:25:12.379Z,53.12
2023-04-18T14:27:40.733Z,53.79
2023-04-18T14:30:10.285Z,52.43
2023-04-18T14:32:38.602Z,52.25
2023-04-18T14:35:09.459Z,51.69
2023-04-18T14:37:37.734Z,53.01
2023-04-18T14:40:08.200Z,57.20
2023-04-18T14:42:36.476Z,57.54
2023-04-18T14:45:05.570Z,54.81
2023-04-18T14:47:34.834Z,52.30
2023-04-18T14:50:03.261Z,52.20
2023-04-18T14:52:32.944Z,53.59
2023-04-18T14:55:01.244Z,55.15
2023-04-18T14:57:29.512Z,55.10
2023-04-18T14:59:57.800Z,56.36
2023-04-18T15:02:26.308Z,53.54
2023-04-18T15:04:55.085Z,52.71
2023-04-18T15:07:23.397Z,54.53
2023-04-18T15:09:53.335Z,52.47
2023-04-18T15:12:21.555Z,55.28
2023-04-18T15:14:49.846Z,55.41
2023-04-18T15:17:18.154Z,53.79
2023-04-18T15:19:46.416Z,52.39
2023-04-18T15:22:14.751Z,53.75
2023-04-18T15:24:43.068Z,53.95
2023-04-18T15:27:12.892Z,50.94
2023-04-18T15:29:41.154Z,53.85
2023-04-18T15:32:10.121Z,52.66
2023-04-18T15:34:38.416Z,52.16
2023-04-18T15:37:07.055Z,51.51
2023-04-18T15:39:35.487Z,51.39
2023-04-18T15:42:03.825Z,49.72
2023-04-18T15:44:33.440Z,49.34
2023-04-18T15:47:01.895Z,48.90
2023-04-18T15:49:30.281Z,47.89
2023-04-18T15:51:58.631Z,47.35
2023-04-18T15:54:27.104Z,48.64
2023-04-18T15:56:55.567Z,47.22
2023-04-18T15:59:23.828Z,45.78
2023-04-18T16:01:53.496Z,47.00
2023-04-18T16:04:21.899Z,46.68
2023-04-18T16:06:50.261Z,49.19
2023-04-18T16:09:18.548Z,50.93
2023-04-18T16:11:46.831Z,49.73
2023-04-18T16:14:15.263Z,52.79
2023-04-18T16:16:43.733Z,52.61
2023-04-18T16:19:14.312Z,51.34
2023-04-18T16:21:42.338Z,49.77
2023-04-18T16:24:10.675Z,54.75
2023-04-18T16:26:38.894Z,53.67
2023-04-18T16:29:07.181Z,54.46
2023-04-18T16:31:35.601Z,55.80
2023-04-18T16:34:04.179Z,54.90
2023-04-18T16:36:35.683Z,52.16
2023-04-18T16:39:04.704Z,53.09
2023-04-18T16:41:33.051Z,55.30
2023-04-18T16:44:01.313Z,61.37
2023-04-18T16:46:32.324Z,59.54
2023-04-18T16:49:01.577Z,59.10
2023-04-18T16:51:29.890Z,57.60
2023-04-18T16:53:59.524Z,54.65
2023-04-18T16:56:27.787Z,55.72
2023-04-18T16:58:56.116Z,54.54
2023-04-18T17:01:24.414Z,52.54
2023-04-18T17:03:52.923Z,53.07
2023-04-18T17:06:22.820Z,51.38
2023-04-18T17:08:53.441Z,51.04
2023-04-18T17:11:23.231Z,52.56
2023-04-18T17:13:51.456Z,53.99
2023-04-18T17:16:19.792Z,54.17
2023-04-18T17:18:48.077Z,54.32
2023-04-18T17:21:16.357Z,58.24
2023-04-18T17:23:44.665Z,55.60
2023-04-18T17:26:13.005Z,53.26
2023-04-18T17:28:43.020Z,53.69
2023-04-18T17:31:11.615Z,56.03
2023-04-18T17:33:39.970Z,56.24
2023-04-18T17:36:08.766Z,56.01
2023-04-18T17:38:37.116Z,57.59
2023-04-18T17:41:05.811Z,57.97
2023-04-18T17:43:34.126Z,55.79
2023-04-18T17:46:04.009Z,54.59
2023-04-18T17:48:32.337Z,52.97
2023-04-18T17:51:00.733Z,54.70
2023-04-18T17:53:31.583Z,55.82
2023-04-18T17:56:00.628Z,56.95
2023-04-18T17:58:29.388Z,63.44
2023-04-18T18:00:57.732Z,60.86
2023-04-18T18:03:27.693Z,71.59
2023-04-18T18:05:56.079Z,68.40
2023-04-18T18:08:24.361Z,71.54
2023-04-18T18:10:52.671Z,69.29
2023-04-18T18:15:48.823Z,81.02
2023-04-18T18:18:17.052Z,83.80
2023-04-18T18:20:46.695Z,77.79
2023-04-18T18:23:14.952Z,83.62
2023-04-18T18:25:43.363Z,81.20
2023-04-18T18:28:11.793Z,78.65
2023-04-18T18:30:40.032Z,83.82
2023-04-18T18:33:08.372Z,75.15
2023-04-18T18:35:37.040Z,72.33
2023-04-18T18:38:07.202Z,64.51
2023-04-18T18:40:35.600Z,69.01
2023-04-18T18:43:03.872Z,71.15
2023-04-18T18:45:32.107Z,70.09
2023-04-18T18:48:00.542Z,76.67
2023-04-18T18:50:28.826Z,73.50
2023-04-18T18:52:57.105Z,76.71
2023-04-18T18:55:26.887Z,87.39
2023-04-18T18:57:55.356Z,80.58
2023-04-18T19:00:23.821Z,71.19
2023-04-18T19:02:52.360Z,74.17
2023-04-18T19:05:21.179Z,78.07
2023-04-18T19:07:51.457Z,74.58
2023-04-18T19:10:19.861Z,78.11
2023-04-18T19:12:49.748Z,76.34
2023-04-18T19:15:18.084Z,77.63
2023-04-18T19:17:46.356Z,68.93
2023-04-18T19:20:14.673Z,78.61
2023-04-18T19:22:43.019Z,78.44
2023-04-18T19:25:11.572Z,79.07
2023-04-18T19:27:39.871Z,89.48
2023-04-18T19:30:10.701Z,83.75
2023-04-18T19:32:39.033Z,79.39
2023-04-18T19:35:09.878Z,83.43
2023-04-18T19:37:38.158Z,81.15
2023-04-18T19:40:07.781Z,84.38
2023-04-18T19:42:36.034Z,83.66
2023-04-18T19:45:04.866Z,76.55
2023-04-18T19:47:34.762Z,79.69
2023-04-18T19:50:03.117Z,80.48
2023-04-18T19:52:31.345Z,82.96
2023-04-18T19:54:59.568Z,81.32
2023-04-18T19:57:29.023Z,75.07
2023-04-18T19:59:57.272Z,76.48
2023-04-18T20:02:25.625Z,74.48
2023-04-18T20:04:55.401Z,81.55
2023-04-18T20:07:26.251Z,89.73
2023-04-18T20:09:54.687Z,84.13
2023-04-18T20:12:23.450Z,75.98
2023-04-18T20:14:51.916Z,74.38
2023-04-18T20:17:20.424Z,72.98
2023-04-18T20:19:49.735Z,71.00
2023-04-18T20:22:19.793Z,73.11
2023-04-18T20:24:48.779Z,69.67
2023-04-18T20:27:20.356Z,69.26
2023-04-18T20:29:48.692Z,72.20
2023-04-18T20:32:17.007Z,70.18
2023-04-18T20:34:45.759Z,68.00
2023-04-18T20:37:15.545Z,70.32
2023-04-18T20:39:45.587Z,64.65
2023-04-18T20:42:14.767Z,63.58
2023-04-18T20:44:44.783Z,63.48
2023-04-18T20:47:15.242Z,62.82
2023-04-18T20:49:44.092Z,62.90
2023-04-18T20:52:14.361Z,65.49
2023-04-18T20:54:42.829Z,65.10
2023-04-18T20:57:12.427Z,62.93
2023-04-18T20:59:40.654Z,61.37
2023-04-18T21:02:09.437Z,60.31
2023-04-18T21:04:38.058Z,61.19
2023-04-18T21:07:06.430Z,61.63
2023-04-18T21:09:36.559Z,66.92
2023-04-18T21:12:05.834Z,64.28
2023-04-18T21:14:35.452Z,65.44
2023-04-18T21:17:03.816Z,62.66
2023-04-18T21:19:32.034Z,65.48
2023-04-18T21:22:00.277Z,69.02
2023-04-18T21:24:28.544Z,65.08
2023-04-18T21:26:57.730Z,65.39
2023-04-18T21:29:26.046Z,71.51
2023-04-18T21:31:55.927Z,70.14
2023-04-18T21:34:24.256Z,70.13
2023-04-18T21:36:52.504Z,68.59
2023-04-18T21:39:20.825Z,71.12
2023-04-18T21:41:49.090Z,72.15
2023-04-18T21:44:18.865Z,67.29
2023-04-18T21:46:47.185Z,63.80
2023-04-18T21:49:16.869Z,65.10
2023-04-18T21:51:45.870Z,64.25
2023-04-18T21:54:14.304Z,61.62
2023-04-18T21:56:42.910Z,60.73
2023-04-18T21:59:11.256Z,61.30
2023-04-18T22:01:39.629Z,61.04
2023-04-18T22:04:08.430Z,64.02
2023-04-18T22:06:38.106Z,61.58
2023-04-18T22:09:06.575Z,60.16
2023-04-18T22:11:34.906Z,58.81
2023-04-18T22:14:03.165Z,59.25
2023-04-18T22:16:33.386Z,58.95
2023-04-18T22:19:02.549Z,59.69
2023-04-18T22:21:31.383Z,59.59
2023-04-18T22:24:01.450Z,61.59
2023-04-18T22:26:30.199Z,61.40
2023-04-18T22:28:58.490Z,58.67
2023-04-18T22:31:26.804Z,59.14
2023-04-18T22:33:55.217Z,57.67
2023-04-18T22:36:23.471Z,58.08
2023-04-18T22:38:51.708Z,59.55
2023-04-18T22:41:21.275Z,57.85
2023-04-18T22:43:49.552Z,57.29
2023-04-18T22:46:17.846Z,56.31
2023-04-18T22:48:46.237Z,60.38
2023-04-18T22:51:14.888Z,60.88
2023-04-18T22:53:43.122Z,58.63
2023-04-18T22:56:11.461Z,59.87
2023-04-18T22:58:41.124Z,60.03
2023-04-18T23:01:09.460Z,59.38
2023-04-18T23:03:37.969Z,59.33
2023-04-18T23:06:08.132Z,62.89
2023-04-18T23:08:36.374Z,59.50
2023-04-18T23:11:04.658Z,58.56
2023-04-18T23:13:32.888Z,60.37
2023-04-18T23:16:02.528Z,59.73
2023-04-18T23:18:31.536Z,59.21
2023-04-18T23:23:28.987Z,61.92
2023-04-18T23:25:57.361Z,60.62
2023-04-18T23:28:25.678Z,60.57
2023-04-18T23:30:53.937Z,60.63
2023-04-18T23:33:23.591Z,60.12
2023-04-18T23:35:51.863Z,63.22
2023-04-18T23:38:20.305Z,64.77
2023-04-18T23:40:48.550Z,67.23
2023-04-18T23:43:16.812Z,65.86
2023-04-18T23:45:45.355Z,64.94
2023-04-18T23:48:13.854Z,65.54
2023-04-18T23:50:48.072Z,67.66
2023-04-18T23:53:17.386Z,65.06
2023-04-18T23:55:46.152Z,61.92
2023-04-18T23:58:14.863Z,59.61
